Avalon, Missouri
Current Conditions -  °F | °C
As of 6:55 PM on Wednesday 22 Oct 2014 (Local Time) from KGPH Reporting Station
Broken Clouds Broken Clouds  
Wind Chill: 68°   Ceiling: 6000
Heat Index: 68°   Visibility: 10mi
Dew Point: 50°   Wind: 5mph
Humidity: 52%   Direction: 130°SE
Pressure: 30.11"   Gusts: NA
Location:  39.66°N, 93.44°W
Report Text: KGPH 222355Z AUTO 13004KT 10SM BKN060 20/10 A3011 RMK AO2
Loading
Personal Weather Stations






























Interactive Weather Map
Tropical Storm Tracking
New forecast layout! Learn more

10-Day Weather Forecast

Advertisements
Track Severe Weather on mobile